createdAt,value
2022-12-03T00:00:12.470Z,41.30
2022-12-03T00:02:41.545Z,41.03
2022-12-03T00:05:09.680Z,41.29
2022-12-03T00:07:37.170Z,40.75
2022-12-03T00:10:05.685Z,41.03
2022-12-03T00:12:33.121Z,41.00
2022-12-03T00:15:00.596Z,41.17
2022-12-03T00:17:28.031Z,40.82
2022-12-03T00:19:55.463Z,40.75
2022-12-03T00:22:22.915Z,40.69
2022-12-03T00:24:50.608Z,40.73
2022-12-03T00:27:18.140Z,40.89
2022-12-03T00:29:45.901Z,40.71
2022-12-03T00:32:14.166Z,41.03
2022-12-03T00:34:41.588Z,41.07
2022-12-03T00:37:09.175Z,40.65
2022-12-03T00:39:36.661Z,40.67
2022-12-03T00:42:04.361Z,41.28
2022-12-03T00:44:31.826Z,40.51
2022-12-03T00:46:59.351Z,41.00
2022-12-03T00:49:26.874Z,40.49
2022-12-03T00:51:54.373Z,41.04
2022-12-03T00:54:25.548Z,40.91
2022-12-03T00:56:56.016Z,40.84
2022-12-03T00:59:23.422Z,40.47
2022-12-03T01:01:50.956Z,40.68
2022-12-03T01:04:19.520Z,40.83
2022-12-03T01:06:47.463Z,40.50
2022-12-03T01:09:15.434Z,40.55
2022-12-03T01:11:42.840Z,40.44
2022-12-03T01:14:13.615Z,40.64
2022-12-03T01:16:41.843Z,40.79
2022-12-03T01:19:10.882Z,40.21
2022-12-03T01:21:38.313Z,40.72
2022-12-03T01:24:05.997Z,40.38
2022-12-03T01:26:33.485Z,40.49
2022-12-03T01:29:00.928Z,40.46
2022-12-03T01:31:47.054Z,40.02
2022-12-03T01:34:14.541Z,40.27
2022-12-03T01:36:42.082Z,41.00
2022-12-03T01:39:09.546Z,40.05
2022-12-03T01:41:37.308Z,40.57
2022-12-03T01:44:23.319Z,40.07
2022-12-03T01:46:52.679Z,40.34
2022-12-03T01:49:24.920Z,40.38
2022-12-03T01:51:53.792Z,39.92
2022-12-03T01:54:40.416Z,40.02
2022-12-03T01:57:26.558Z,40.31
2022-12-03T01:59:56.471Z,40.34
2022-12-03T02:02:29.311Z,40.18
2022-12-03T02:04:57.854Z,40.35
2022-12-03T02:07:31.748Z,40.47
2022-12-03T02:10:02.854Z,40.14
2022-12-03T02:12:38.406Z,40.01
2022-12-03T02:15:07.298Z,39.49
2022-12-03T02:17:34.880Z,40.10
2022-12-03T02:20:07.843Z,39.75
2022-12-03T02:25:23.280Z,40.33
2022-12-03T02:27:53.060Z,40.09
2022-12-03T02:30:22.800Z,40.23
2022-12-03T02:32:51.799Z,39.97
2022-12-03T02:35:30.331Z,40.01
2022-12-03T02:38:04.022Z,40.11
2022-12-03T02:40:33.301Z,39.48
2022-12-03T02:43:03.831Z,39.61
2022-12-03T02:45:36.269Z,39.71
2022-12-03T02:48:08.629Z,39.98
2022-12-03T02:50:39.508Z,40.11
2022-12-03T02:53:17.440Z,40.15
2022-12-03T02:55:46.224Z,40.38
2022-12-03T02:58:15.082Z,40.49
2022-12-03T03:00:44.006Z,40.19
2022-12-03T03:03:12.388Z,40.03
2022-12-03T03:05:41.481Z,39.92
2022-12-03T03:08:10.733Z,40.54
2022-12-03T03:10:40.592Z,40.04
2022-12-03T03:13:11.632Z,40.40
2022-12-03T03:15:40.589Z,40.16
2022-12-03T03:18:09.226Z,40.04
2022-12-03T03:20:37.364Z,40.42
2022-12-03T03:23:18.510Z,40.18
2022-12-03T03:25:50.668Z,40.30
2022-12-03T03:28:20.645Z,39.79
2022-12-03T03:30:48.906Z,39.90
2022-12-03T03:33:16.896Z,40.13
2022-12-03T03:35:46.359Z,40.17
2022-12-03T03:38:15.036Z,40.07
2022-12-03T03:40:42.965Z,39.97
2022-12-03T03:43:12.053Z,40.18
2022-12-03T03:45:39.727Z,40.00
2022-12-03T03:48:07.542Z,39.99
2022-12-03T03:50:35.498Z,39.86
2022-12-03T03:53:04.314Z,39.79
2022-12-03T03:55:32.428Z,40.05
2022-12-03T03:58:00.169Z,39.98
2022-12-03T04:00:27.796Z,39.67
2022-12-03T04:02:55.247Z,39.59
2022-12-03T04:05:24.065Z,39.69
2022-12-03T04:07:51.704Z,39.61
2022-12-03T04:10:37.848Z,39.88
2022-12-03T04:13:05.792Z,39.67
2022-12-03T04:15:33.220Z,39.44
2022-12-03T04:18:19.721Z,39.34
2022-12-03T04:20:47.201Z,39.45
2022-12-03T04:23:14.699Z,39.45
2022-12-03T04:26:20.860Z,39.62
2022-12-03T04:28:51.048Z,39.18
2022-12-03T04:31:37.236Z,39.44
2022-12-03T04:34:23.756Z,39.47
2022-12-03T04:36:51.279Z,39.14
2022-12-03T04:39:18.716Z,39.30
2022-12-03T04:41:46.198Z,39.24
2022-12-03T04:44:32.352Z,39.30
2022-12-03T04:47:03.685Z,39.47
2022-12-03T04:49:31.624Z,39.02
2022-12-03T04:51:59.220Z,39.30
2022-12-03T04:54:27.759Z,39.31
2022-12-03T04:56:55.220Z,39.13
2022-12-03T04:59:22.784Z,39.05
2022-12-03T05:01:50.515Z,38.93
2022-12-03T05:04:18.097Z,38.89
2022-12-03T05:06:45.831Z,38.96
2022-12-03T05:09:14.171Z,38.84
2022-12-03T05:11:42.130Z,39.15
2022-12-03T05:14:10.484Z,38.93
2022-12-03T05:16:38.804Z,39.23
2022-12-03T05:19:07.985Z,38.84
2022-12-03T05:21:35.711Z,39.17
2022-12-03T05:24:03.296Z,38.81
2022-12-03T05:26:30.724Z,38.72
2022-12-03T05:28:58.189Z,38.74
2022-12-03T05:31:25.851Z,38.81
2022-12-03T05:33:54.725Z,38.77
2022-12-03T05:36:22.291Z,38.82
2022-12-03T05:38:49.816Z,38.58
2022-12-03T05:41:36.026Z,38.48
2022-12-03T05:44:03.497Z,38.42
2022-12-03T05:46:31.407Z,38.74
2022-12-03T05:48:58.925Z,38.85
2022-12-03T05:51:26.352Z,38.34
2022-12-03T05:53:53.870Z,38.54
2022-12-03T05:56:21.593Z,38.35
2022-12-03T05:58:49.831Z,38.30
2022-12-03T06:01:17.372Z,38.68
2022-12-03T06:03:45.000Z,38.46
2022-12-03T06:06:12.607Z,38.73
2022-12-03T06:08:40.176Z,38.38
2022-12-03T06:11:07.670Z,38.60
2022-12-03T06:13:35.117Z,38.27
2022-12-03T06:16:02.720Z,38.40
2022-12-03T06:18:30.267Z,38.39
2022-12-03T06:20:57.727Z,38.21
2022-12-03T06:23:25.256Z,38.25
2022-12-03T06:25:52.708Z,38.23
2022-12-03T06:28:20.116Z,38.24
2022-12-03T06:30:47.593Z,38.50
2022-12-03T06:33:15.074Z,38.44
2022-12-03T06:35:42.598Z,38.19
2022-12-03T06:38:10.055Z,38.39
2022-12-03T06:40:38.311Z,38.25
2022-12-03T06:43:05.988Z,38.32
2022-12-03T06:45:33.411Z,38.51
2022-12-03T06:48:00.838Z,38.51
2022-12-03T06:50:28.327Z,38.47
2022-12-03T06:52:55.808Z,38.39
2022-12-03T06:55:23.276Z,38.45
2022-12-03T06:57:50.689Z,38.46
2022-12-03T07:00:18.678Z,38.72
2022-12-03T07:02:46.199Z,38.42
2022-12-03T07:05:14.170Z,38.55
2022-12-03T07:07:41.665Z,38.56
2022-12-03T07:10:09.840Z,38.28
2022-12-03T07:12:37.906Z,38.59
2022-12-03T07:15:05.816Z,38.30
2022-12-03T07:17:33.307Z,38.58
2022-12-03T07:20:00.742Z,38.38
2022-12-03T07:22:28.268Z,38.50
2022-12-03T07:24:55.998Z,38.55
2022-12-03T07:27:23.756Z,38.52
2022-12-03T07:29:51.670Z,38.51
2022-12-03T07:32:19.137Z,38.42
2022-12-03T07:34:46.652Z,38.12
2022-12-03T07:37:17.490Z,38.35
2022-12-03T07:39:47.631Z,38.49
2022-12-03T07:42:15.068Z,38.48
2022-12-03T07:44:42.466Z,38.63
2022-12-03T07:47:10.070Z,38.28
2022-12-03T07:49:37.535Z,38.33
2022-12-03T07:52:20.056Z,38.33
2022-12-03T07:54:47.506Z,38.61
2022-12-03T07:57:14.893Z,38.36
2022-12-03T07:59:42.362Z,38.63
2022-12-03T08:02:10.004Z,38.20
2022-12-03T08:04:37.613Z,38.63
2022-12-03T08:07:06.041Z,38.58
2022-12-03T08:09:33.475Z,38.95
2022-12-03T08:12:06.342Z,39.36
2022-12-03T08:14:33.797Z,39.36
2022-12-03T08:17:01.310Z,39.60
2022-12-03T08:19:28.716Z,39.37
2022-12-03T08:22:01.023Z,40.17
2022-12-03T08:24:30.420Z,40.57
2022-12-03T08:26:57.941Z,42.28
2022-12-03T08:29:25.424Z,42.60
2022-12-03T08:31:57.165Z,42.98
2022-12-03T08:34:27.795Z,43.45
2022-12-03T08:37:05.884Z,43.18
2022-12-03T08:39:39.476Z,43.17
2022-12-03T08:42:34.038Z,42.70
2022-12-03T08:45:23.289Z,42.67
2022-12-03T08:47:50.764Z,42.51
2022-12-03T08:50:31.400Z,42.52
2022-12-03T08:53:35.494Z,42.61
2022-12-03T08:56:19.040Z,41.93
2022-12-03T08:58:48.894Z,42.19
2022-12-03T09:01:28.910Z,42.74
2022-12-03T09:04:02.347Z,42.61
2022-12-03T09:06:29.932Z,42.62
2022-12-03T09:08:58.642Z,43.24
2022-12-03T09:11:27.555Z,43.36
2022-12-03T09:13:55.046Z,43.42
2022-12-03T09:16:22.573Z,43.14
2022-12-03T09:18:50.009Z,43.55
2022-12-03T09:21:17.543Z,43.48
2022-12-03T09:23:44.969Z,43.32
2022-12-03T09:26:12.408Z,43.63
2022-12-03T09:28:39.908Z,42.87
2022-12-03T09:31:07.408Z,43.25
2022-12-03T09:33:34.927Z,42.76
2022-12-03T09:36:02.449Z,43.63
2022-12-03T09:38:29.949Z,43.47
2022-12-03T09:40:57.398Z,43.05
2022-12-03T09:43:33.502Z,43.53
2022-12-03T09:46:12.444Z,43.50
2022-12-03T09:48:40.628Z,43.11
2022-12-03T09:51:10.276Z,43.28
2022-12-03T09:53:41.438Z,43.76
2022-12-03T09:56:21.019Z,43.36
2022-12-03T09:58:49.553Z,43.52
2022-12-03T10:01:18.068Z,43.55
2022-12-03T10:03:51.077Z,43.58
2022-12-03T10:06:22.188Z,43.31
2022-12-03T10:08:53.553Z,43.31
2022-12-03T10:11:24.360Z,43.25
2022-12-03T10:13:55.307Z,43.15
2022-12-03T10:16:23.298Z,43.14
2022-12-03T10:18:56.247Z,43.27
2022-12-03T10:21:26.416Z,42.94
2022-12-03T10:24:26.663Z,42.98
2022-12-03T10:26:59.846Z,43.09
2022-12-03T10:29:34.064Z,42.89
2022-12-03T10:32:06.578Z,42.86
2022-12-03T10:34:37.050Z,42.72
2022-12-03T10:37:09.130Z,42.25
2022-12-03T10:40:08.444Z,42.12
2022-12-03T10:42:38.568Z,40.92
2022-12-03T10:45:20.993Z,41.76
2022-12-03T10:48:12.106Z,42.05
2022-12-03T10:51:04.694Z,41.57
2022-12-03T10:53:34.642Z,41.85
2022-12-03T10:56:05.782Z,41.87
2022-12-03T10:58:40.504Z,41.78
2022-12-03T11:01:17.434Z,41.87
2022-12-03T11:03:45.367Z,41.95
2022-12-03T11:06:19.223Z,42.05
2022-12-03T11:08:58.483Z,41.76
2022-12-03T11:11:31.371Z,42.08
2022-12-03T11:14:03.687Z,41.93
2022-12-03T11:16:39.864Z,42.06
2022-12-03T11:19:13.203Z,41.91
2022-12-03T11:22:05.374Z,41.82
2022-12-03T11:24:34.813Z,41.94
2022-12-03T11:27:02.260Z,41.99
2022-12-03T11:29:58.879Z,41.76
2022-12-03T11:32:38.341Z,42.14
2022-12-03T11:35:27.387Z,41.57
2022-12-03T11:37:54.848Z,42.03
2022-12-03T11:40:22.321Z,41.79
2022-12-03T11:42:49.991Z,42.04
2022-12-03T11:45:38.005Z,41.80
2022-12-03T11:48:12.400Z,41.76
2022-12-03T11:50:53.499Z,41.65
2022-12-03T11:53:26.004Z,41.51
2022-12-03T11:56:11.183Z,41.38
2022-12-03T11:58:42.402Z,39.52
2022-12-03T12:01:10.058Z,40.93
2022-12-03T12:03:47.874Z,41.26
2022-12-03T12:06:18.552Z,41.33
2022-12-03T12:08:51.977Z,42.05
2022-12-03T12:11:34.027Z,42.83
2022-12-03T12:14:06.762Z,43.32
2022-12-03T12:16:55.078Z,42.71
2022-12-03T12:19:42.562Z,43.30
2022-12-03T12:22:20.452Z,43.51
2022-12-03T12:24:57.960Z,43.22
2022-12-03T12:27:49.351Z,43.81
2022-12-03T12:30:19.759Z,44.01
2022-12-03T12:33:28.898Z,44.11
2022-12-03T12:35:56.365Z,44.04
2022-12-03T12:38:24.339Z,44.00
2022-12-03T12:40:52.649Z,44.04
2022-12-03T12:43:24.982Z,44.50
2022-12-03T12:45:55.033Z,44.39
2022-12-03T12:48:28.285Z,44.10
2022-12-03T12:51:06.161Z,44.12
2022-12-03T12:53:35.905Z,44.27
2022-12-03T12:56:21.289Z,44.37
2022-12-03T12:58:48.962Z,44.74
2022-12-03T13:01:26.435Z,44.73
2022-12-03T13:03:54.784Z,44.91
2022-12-03T13:06:27.817Z,44.70
2022-12-03T13:08:56.287Z,45.02
2022-12-03T13:11:41.967Z,44.62
2022-12-03T13:14:16.979Z,44.73
2022-12-03T13:16:45.684Z,44.66
2022-12-03T13:19:22.894Z,44.40
2022-12-03T13:21:52.490Z,44.38
2022-12-03T13:24:53.027Z,44.32
2022-12-03T13:27:20.541Z,44.09
2022-12-03T13:30:05.181Z,43.94
2022-12-03T13:32:36.448Z,43.76
2022-12-03T13:35:18.459Z,43.62
2022-12-03T13:37:45.954Z,43.57
2022-12-03T13:40:19.341Z,43.33
2022-12-03T13:42:46.864Z,43.67
2022-12-03T13:45:14.228Z,42.97
2022-12-03T13:47:44.347Z,43.44
2022-12-03T13:50:22.275Z,43.24
2022-12-03T13:52:49.886Z,43.05
2022-12-03T13:55:25.473Z,43.05
2022-12-03T13:57:53.666Z,42.79
2022-12-03T14:00:21.838Z,43.09
2022-12-03T14:02:49.512Z,42.69
2022-12-03T14:05:17.343Z,42.86
2022-12-03T14:07:44.911Z,42.87
2022-12-03T14:10:13.265Z,42.62
2022-12-03T14:12:40.775Z,42.81
2022-12-03T14:15:10.767Z,42.77
2022-12-03T14:17:38.225Z,42.54
2022-12-03T14:20:06.497Z,42.67
2022-12-03T14:22:37.704Z,42.37
2022-12-03T14:25:06.555Z,42.82
2022-12-03T14:27:34.424Z,42.45
2022-12-03T14:30:02.086Z,42.72
2022-12-03T14:32:29.634Z,42.87
2022-12-03T14:34:57.094Z,43.00
2022-12-03T14:37:24.556Z,42.80
2022-12-03T14:39:52.774Z,42.73
2022-12-03T14:42:20.497Z,42.60
2022-12-03T14:44:50.227Z,42.78
2022-12-03T14:47:20.074Z,42.56
2022-12-03T14:49:47.601Z,42.72
2022-12-03T14:52:15.447Z,42.85
2022-12-03T14:54:43.444Z,42.86
2022-12-03T14:57:15.385Z,42.74
2022-12-03T14:59:44.304Z,42.55
2022-12-03T15:02:12.290Z,42.59
2022-12-03T15:04:41.256Z,42.38
2022-12-03T15:07:09.478Z,42.66
2022-12-03T15:09:37.167Z,42.79
2022-12-03T15:12:05.028Z,42.68
2022-12-03T15:14:32.592Z,41.84
2022-12-03T15:17:00.078Z,42.39
2022-12-03T15:19:27.633Z,41.94
2022-12-03T15:21:55.179Z,42.03
2022-12-03T15:24:22.691Z,42.32
2022-12-03T15:26:53.380Z,42.16
2022-12-03T15:29:21.258Z,41.99
2022-12-03T15:31:48.766Z,42.60
2022-12-03T15:34:22.149Z,42.97
2022-12-03T15:36:50.584Z,42.67
2022-12-03T15:39:18.017Z,42.76
2022-12-03T15:41:45.433Z,42.76
2022-12-03T15:44:12.875Z,42.92
2022-12-03T15:46:40.319Z,42.64
2022-12-03T15:49:07.784Z,42.81
2022-12-03T15:51:35.245Z,42.86
2022-12-03T15:54:02.666Z,42.75
2022-12-03T15:56:30.085Z,43.01
2022-12-03T15:58:57.532Z,42.41
2022-12-03T16:01:25.093Z,42.70
2022-12-03T16:03:52.631Z,42.72
2022-12-03T16:06:20.081Z,42.70
2022-12-03T16:08:48.213Z,42.59
2022-12-03T16:11:15.957Z,42.70
2022-12-03T16:13:43.507Z,42.67
2022-12-03T16:16:11.133Z,42.81
2022-12-03T16:18:38.683Z,42.79
2022-12-03T16:21:06.201Z,42.65
2022-12-03T16:23:33.702Z,42.64
2022-12-03T16:26:01.117Z,42.67
2022-12-03T16:28:28.553Z,42.64
2022-12-03T16:30:56.067Z,42.90
2022-12-03T16:33:27.450Z,42.35
2022-12-03T16:35:55.589Z,42.10
2022-12-03T16:38:23.194Z,42.94
2022-12-03T16:40:50.628Z,43.01
2022-12-03T16:43:18.523Z,43.21
2022-12-03T16:45:45.901Z,42.98
2022-12-03T16:48:13.378Z,43.07
2022-12-03T16:50:40.861Z,43.33
2022-12-03T16:53:08.310Z,43.38
2022-12-03T16:55:35.734Z,43.42
2022-12-03T16:58:03.171Z,43.91
2022-12-03T17:00:30.697Z,43.56
2022-12-03T17:02:58.446Z,43.41
2022-12-03T17:05:25.915Z,43.35
2022-12-03T17:07:53.752Z,43.62
2022-12-03T17:10:21.295Z,44.31
2022-12-03T17:13:08.888Z,44.24
2022-12-03T17:15:36.541Z,44.25
2022-12-03T17:18:04.281Z,43.76
2022-12-03T17:20:32.623Z,43.13
2022-12-03T17:23:01.061Z,43.59
2022-12-03T17:25:28.697Z,43.48
2022-12-03T17:27:56.288Z,43.69
2022-12-03T17:30:23.753Z,43.39
2022-12-03T17:32:51.268Z,43.48
2022-12-03T17:35:19.423Z,42.94
2022-12-03T17:37:46.911Z,42.74
2022-12-03T17:40:16.991Z,42.66
2022-12-03T17:42:44.569Z,42.81
2022-12-03T17:45:13.044Z,42.80
2022-12-03T17:47:40.538Z,42.74
2022-12-03T17:50:08.580Z,42.40
2022-12-03T17:52:35.986Z,42.76
2022-12-03T17:55:15.639Z,42.33
2022-12-03T17:57:43.681Z,42.26
2022-12-03T18:00:11.722Z,42.16
2022-12-03T18:02:42.542Z,42.07
2022-12-03T18:05:10.151Z,41.93
2022-12-03T18:07:37.692Z,41.92
2022-12-03T18:10:05.920Z,41.71
2022-12-03T18:12:33.734Z,41.65
2022-12-03T18:15:01.160Z,41.33
2022-12-03T18:17:28.676Z,41.64
2022-12-03T18:19:56.730Z,41.78
2022-12-03T18:22:24.533Z,41.62
2022-12-03T18:24:52.260Z,41.46
2022-12-03T18:27:23.433Z,41.19
2022-12-03T18:29:51.539Z,41.47
2022-12-03T18:32:29.411Z,41.30
2022-12-03T18:34:58.028Z,41.52
2022-12-03T18:37:29.825Z,41.05
2022-12-03T18:39:58.485Z,41.12
2022-12-03T18:42:26.644Z,41.28
2022-12-03T18:44:56.199Z,40.97
2022-12-03T18:47:28.140Z,40.97
2022-12-03T18:49:56.547Z,41.18
2022-12-03T18:52:25.136Z,40.87
2022-12-03T18:54:53.147Z,41.38
2022-12-03T18:57:20.603Z,41.25
2022-12-03T18:59:48.079Z,41.12
2022-12-03T19:02:45.885Z,41.11
2022-12-03T19:05:07.595Z,41.34
2022-12-03T19:07:35.226Z,41.00
2022-12-03T19:10:03.165Z,41.07
2022-12-03T19:12:31.263Z,41.58
2022-12-03T19:14:58.695Z,41.54
2022-12-03T19:17:27.283Z,41.70
2022-12-03T19:19:55.324Z,42.14
2022-12-03T19:22:23.648Z,42.12
2022-12-03T19:24:51.183Z,42.00
2022-12-03T19:27:19.268Z,42.21
2022-12-03T19:29:49.753Z,42.15
2022-12-03T19:32:17.591Z,42.38
2022-12-03T19:34:45.125Z,42.53
2022-12-03T19:37:12.640Z,42.69
2022-12-03T19:39:40.090Z,43.69
2022-12-03T19:42:07.741Z,43.82
2022-12-03T19:44:35.200Z,43.36
2022-12-03T19:47:02.712Z,43.61
2022-12-03T19:49:30.167Z,43.20
2022-12-03T19:51:57.558Z,42.97
2022-12-03T19:54:25.121Z,42.86
2022-12-03T19:56:52.654Z,42.35
2022-12-03T19:59:20.212Z,42.57
2022-12-03T20:01:47.804Z,42.51
2022-12-03T20:04:15.423Z,42.46
2022-12-03T20:06:42.920Z,43.27
2022-12-03T20:09:13.038Z,43.31
2022-12-03T20:11:41.561Z,43.24
2022-12-03T20:14:12.917Z,42.91
2022-12-03T20:16:41.179Z,43.41
2022-12-03T20:19:12.174Z,43.35
2022-12-03T20:21:40.337Z,43.28
2022-12-03T20:24:09.901Z,42.78
2022-12-03T20:26:37.322Z,42.94
2022-12-03T20:29:04.733Z,42.91
2022-12-03T20:31:32.521Z,42.49
2022-12-03T20:34:02.118Z,42.84
2022-12-03T20:36:31.780Z,42.54
2022-12-03T20:39:02.175Z,42.75
2022-12-03T20:41:29.913Z,42.52
2022-12-03T20:43:57.372Z,41.76
2022-12-03T20:46:28.851Z,42.31
2022-12-03T20:48:57.012Z,42.34
2022-12-03T20:51:27.453Z,42.39
2022-12-03T20:53:55.616Z,42.52
2022-12-03T20:56:31.250Z,42.69
2022-12-03T20:59:07.504Z,42.32
2022-12-03T21:01:36.149Z,42.44
2022-12-03T21:04:05.472Z,42.76
2022-12-03T21:06:35.856Z,42.33
2022-12-03T21:09:06.512Z,42.90
2022-12-03T21:11:35.869Z,42.57
2022-12-03T21:14:04.181Z,42.80
2022-12-03T21:19:23.357Z,42.62
2022-12-03T21:21:50.890Z,42.35
2022-12-03T21:24:18.407Z,42.39
2022-12-03T21:26:46.069Z,41.93
2022-12-03T21:29:13.520Z,41.52
2022-12-03T21:31:40.981Z,41.65
2022-12-03T21:34:08.720Z,42.17
2022-12-03T21:36:36.444Z,42.50
2022-12-03T21:39:05.535Z,42.21
2022-12-03T21:41:35.104Z,41.76
2022-12-03T21:44:03.863Z,42.36
2022-12-03T21:47:11.088Z,42.19
2022-12-03T21:49:20.254Z,42.08
2022-12-03T21:51:47.737Z,41.87
2022-12-03T21:54:15.639Z,42.16
2022-12-03T21:56:43.068Z,42.05
2022-12-03T21:59:10.505Z,41.91
2022-12-03T22:01:39.680Z,42.27
2022-12-03T22:04:10.222Z,41.83
2022-12-03T22:06:37.712Z,41.67
2022-12-03T22:09:05.137Z,41.85
2022-12-03T22:11:32.656Z,42.00
2022-12-03T22:14:00.256Z,41.89
2022-12-03T22:16:27.789Z,42.03
2022-12-03T22:18:55.237Z,41.75
2022-12-03T22:21:24.539Z,41.90
2022-12-03T22:23:52.169Z,42.12
2022-12-03T22:26:19.958Z,42.03
2022-12-03T22:28:49.041Z,41.81
2022-12-03T22:31:18.101Z,41.58
2022-12-03T22:33:48.377Z,41.45
2022-12-03T22:36:21.013Z,41.70
2022-12-03T22:38:50.958Z,42.46
2022-12-03T22:41:19.516Z,42.42
2022-12-03T22:43:48.313Z,42.52
2022-12-03T22:46:16.675Z,42.35
2022-12-03T22:48:46.429Z,42.44
2022-12-03T22:51:19.631Z,42.38
2022-12-03T22:53:47.602Z,42.39
2022-12-03T22:56:16.004Z,42.15
2022-12-03T22:58:43.416Z,42.02
2022-12-03T23:01:24.032Z,41.71
2022-12-03T23:03:51.808Z,42.74
2022-12-03T23:06:19.810Z,42.56
2022-12-03T23:08:47.933Z,42.39
2022-12-03T23:11:15.916Z,42.37
2022-12-03T23:13:43.581Z,42.46
2022-12-03T23:16:16.615Z,42.32
2022-12-03T23:18:44.913Z,42.97
2022-12-03T23:21:28.605Z,42.43
2022-12-03T23:24:01.662Z,42.10
2022-12-03T23:26:29.227Z,42.15
2022-12-03T23:28:56.681Z,42.31
2022-12-03T23:31:30.054Z,42.16
2022-12-03T23:33:58.939Z,41.97
2022-12-03T23:36:30.576Z,41.90
2022-12-03T23:38:58.234Z,42.04
2022-12-03T23:41:26.339Z,42.05
2022-12-03T23:43:54.253Z,42.35
2022-12-03T23:46:24.906Z,41.98
2022-12-03T23:48:53.045Z,41.43
2022-12-03T23:51:24.087Z,42.05
2022-12-03T23:53:53.361Z,41.78
2022-12-03T23:56:24.504Z,41.63
2022-12-03T23:58:52.587Z,41.47
